Airport Name : Araxos

Other Name : Araxos

ICAO : LGRX

IATA : GPA

FAA :

Latitude : 38.151111

Longitude : 21.425556

Country : Greece

Local Date and Time : 07 Dec 2022 22:01

 

TAF (Terminal Aerodrome Forecast)

TAF LGRX 210800Z 2109/2118 24012KT 9999 SCT020 BKN080 TEMPO 2109/2118 5000 RA BKN020 BKN080 PROB30 TEMPO 2109/2115 3000 TSRA FEW018CB BKN020 OVC080 BECMG 2113/2115 32010KT

 

METAR (METeorological Aerodrome Report)

LGRX 062150Z 06005KT 9999 -DZ SCT025 BKN080 14/13 Q1017

LGRX 062050Z 03006KT 9999 -RA FEW015 BKN025 OVC070 14/13 Q1018

LGRX 061950Z 05007KT 7000 -RA FEW015 BKN025 OVC070 14/13 Q1018

LGRX 061850Z 08004KT 8000 -RA FEW015 BKN025 OVC070 14/14 Q1018

To Charter a Jet Click here.